createdAt,value
2019-01-25T00:01:04.323Z,96431.98
2019-01-25T00:02:43.531Z,96430.72
2019-01-25T00:04:19.563Z,96428.62
2019-01-25T00:06:00.523Z,96426.11
2019-01-25T00:07:36.039Z,96425.95
2019-01-25T00:09:14.494Z,96428.21
2019-01-25T00:10:50.321Z,96424.54
2019-01-25T00:12:28.408Z,96425.65
2019-01-25T00:14:06.105Z,96424.50
2019-01-25T00:15:41.782Z,96420.23
2019-01-25T00:17:18.907Z,96426.54
2019-01-25T00:19:01.271Z,96423.58
2019-01-25T00:20:36.961Z,96431.95
2019-01-25T00:22:18.362Z,96423.97
2019-01-25T00:23:57.642Z,96426.80
2019-01-25T00:25:33.460Z,96431.86
2019-01-25T00:27:08.832Z,96435.29
2019-01-25T00:28:48.743Z,96431.95
2019-01-25T00:30:24.865Z,96433.49
2019-01-25T00:32:00.187Z,96432.22
2019-01-25T00:33:35.586Z,96437.55
2019-01-25T00:35:10.982Z,96442.37
2019-01-25T00:36:52.062Z,96445.38
2019-01-25T00:38:27.189Z,96445.80
2019-01-25T00:40:06.397Z,96445.47
2019-01-25T00:41:42.677Z,96428.79
2019-01-25T00:43:18.583Z,96434.83
2019-01-25T00:44:54.721Z,96428.23
2019-01-25T00:46:30.117Z,96433.00
2019-01-25T00:48:06.021Z,96428.88
2019-01-25T00:49:41.598Z,96431.21
2019-01-25T00:51:17.022Z,96431.92
2019-01-25T00:52:56.039Z,96423.36
2019-01-25T00:54:31.312Z,96428.64
2019-01-25T00:56:07.445Z,96428.38
2019-01-25T00:57:42.935Z,96429.84
2019-01-25T00:59:18.623Z,96421.86
2019-01-25T01:00:54.150Z,96425.43
2019-01-25T01:02:30.126Z,96426.97
2019-01-25T01:04:05.697Z,96424.05
2019-01-25T01:05:41.216Z,96427.83
2019-01-25T01:07:17.020Z,96424.64
2019-01-25T01:08:52.357Z,96423.66
2019-01-25T01:10:27.846Z,96421.34
2019-01-25T01:12:03.763Z,96424.95
2019-01-25T01:13:39.385Z,96426.53
2019-01-25T01:15:18.298Z,96430.11
2019-01-25T01:16:54.612Z,96431.17
2019-01-25T01:18:31.670Z,96441.19
2019-01-25T01:20:10.030Z,96443.89
2019-01-25T01:21:48.574Z,96439.17
2019-01-25T01:23:24.071Z,96448.58
2019-01-25T01:24:59.664Z,96443.55
2019-01-25T01:26:36.947Z,96440.33
2019-01-25T01:28:14.212Z,96445.78
2019-01-25T01:29:49.820Z,96439.90
2019-01-25T01:31:26.346Z,96440.25
2019-01-25T01:33:01.863Z,96445.17
2019-01-25T01:34:38.050Z,96436.47
2019-01-25T01:36:13.385Z,96436.55
2019-01-25T01:37:58.482Z,96439.55
2019-01-25T01:39:34.155Z,96438.27
2019-01-25T01:41:09.515Z,96437.92
2019-01-25T01:42:45.051Z,96443.42
2019-01-25T01:44:20.367Z,96436.76
2019-01-25T01:45:56.101Z,96430.44
2019-01-25T01:47:32.306Z,96432.97
2019-01-25T01:49:08.120Z,96434.36
2019-01-25T01:50:43.518Z,96430.45
2019-01-25T01:52:19.676Z,96431.56
2019-01-25T01:53:57.409Z,96429.25
2019-01-25T01:55:32.696Z,96432.25
2019-01-25T01:57:08.043Z,96439.98
2019-01-25T01:58:43.336Z,96446.64
2019-01-25T02:00:24.398Z,96437.02
2019-01-25T02:01:59.802Z,96440.67
2019-01-25T02:03:35.848Z,96440.38
2019-01-25T02:05:14.190Z,96447.46
2019-01-25T02:06:50.314Z,96448.80
2019-01-25T02:08:26.122Z,96448.80
2019-01-25T02:10:01.814Z,96449.70
2019-01-25T02:11:37.377Z,96454.68
2019-01-25T02:13:12.782Z,96456.09
2019-01-25T02:14:48.123Z,96455.66
2019-01-25T02:16:25.095Z,96460.43
2019-01-25T02:18:00.537Z,96456.78
2019-01-25T02:19:36.632Z,96456.64
2019-01-25T02:21:12.041Z,96460.64
2019-01-25T02:22:49.470Z,96465.96
2019-01-25T02:24:24.894Z,96469.83
2019-01-25T02:26:00.488Z,96470.02
2019-01-25T02:27:36.726Z,96470.86
2019-01-25T02:29:12.336Z,96471.56
2019-01-25T02:30:47.958Z,96470.22
2019-01-25T02:32:23.708Z,96467.78
2019-01-25T02:34:01.881Z,96473.88
2019-01-25T02:35:37.267Z,96472.76
2019-01-25T02:37:12.566Z,96476.11
2019-01-25T02:38:48.475Z,96464.84
2019-01-25T02:40:25.693Z,96459.88
2019-01-25T02:42:01.627Z,96460.22
2019-01-25T02:43:37.466Z,96457.00
2019-01-25T02:45:14.947Z,96459.88
2019-01-25T02:46:50.712Z,96453.30
2019-01-25T02:48:26.126Z,96453.34
2019-01-25T02:50:01.536Z,96451.19
2019-01-25T02:51:36.957Z,96448.95
2019-01-25T02:53:12.621Z,96448.09
2019-01-25T02:54:49.243Z,96447.48
2019-01-25T02:56:24.535Z,96441.23
2019-01-25T02:58:02.612Z,96433.31
2019-01-25T02:59:38.808Z,96433.47
2019-01-25T03:01:14.427Z,96433.81
2019-01-25T03:02:49.808Z,96437.80
2019-01-25T03:04:25.679Z,96430.92
2019-01-25T03:06:01.502Z,96431.75
2019-01-25T03:07:37.051Z,96434.16
2019-01-25T03:09:13.873Z,96433.13
2019-01-25T03:10:49.274Z,96434.71
2019-01-25T03:12:24.840Z,96432.39
2019-01-25T03:14:00.223Z,96433.23
2019-01-25T03:15:35.550Z,96436.48
2019-01-25T03:17:11.372Z,96440.95
2019-01-25T03:18:46.653Z,96435.53
2019-01-25T03:20:22.042Z,96436.52
2019-01-25T03:21:57.419Z,96438.36
2019-01-25T03:23:33.058Z,96433.17
2019-01-25T03:25:10.601Z,96437.70
2019-01-25T03:26:46.406Z,96443.52
2019-01-25T03:28:21.915Z,96449.83
2019-01-25T03:29:57.348Z,96447.06
2019-01-25T03:31:32.929Z,96456.48
2019-01-25T03:33:08.481Z,96450.88
2019-01-25T03:34:43.959Z,96447.02
2019-01-25T03:36:21.779Z,96446.02
2019-01-25T03:37:58.101Z,96448.35
2019-01-25T03:39:39.745Z,96451.66
2019-01-25T03:41:17.298Z,96450.36
2019-01-25T03:42:53.587Z,96454.44
2019-01-25T03:44:39.795Z,96451.66
2019-01-25T03:46:15.457Z,96450.52
2019-01-25T03:48:02.598Z,96453.70
2019-01-25T03:49:39.167Z,96455.38
2019-01-25T03:51:14.762Z,96457.27
2019-01-25T03:52:50.200Z,96461.41
2019-01-25T03:54:25.968Z,96459.39
2019-01-25T03:56:01.772Z,96462.98
2019-01-25T03:57:40.774Z,96465.09
2019-01-25T03:59:19.754Z,96465.70
2019-01-25T04:00:57.075Z,96468.06
2019-01-25T04:02:33.034Z,96472.02
2019-01-25T04:04:08.540Z,96471.59
2019-01-25T04:05:44.397Z,96473.14
2019-01-25T04:07:20.355Z,96474.47
2019-01-25T04:08:55.667Z,96478.97
2019-01-25T04:10:31.403Z,96483.53
2019-01-25T04:12:14.996Z,96485.77
2019-01-25T04:13:52.533Z,96493.63
2019-01-25T04:15:32.558Z,96488.00
2019-01-25T04:17:10.379Z,96490.97
2019-01-25T04:18:49.092Z,96493.33
2019-01-25T04:20:24.885Z,96497.94
2019-01-25T04:22:03.723Z,96500.42
2019-01-25T04:23:39.236Z,96500.29
2019-01-25T04:25:16.918Z,96494.95
2019-01-25T04:26:52.382Z,96493.76
2019-01-25T04:28:27.752Z,96494.92
2019-01-25T04:30:04.561Z,96496.47
2019-01-25T04:31:40.204Z,96501.54
2019-01-25T04:33:16.429Z,96502.44
2019-01-25T04:34:52.644Z,96499.48
2019-01-25T04:36:29.907Z,96506.44
2019-01-25T04:38:05.061Z,96511.64
2019-01-25T04:39:40.722Z,96516.67
2019-01-25T04:41:16.629Z,96511.85
2019-01-25T04:42:51.928Z,96524.95
2019-01-25T04:44:27.834Z,96523.47
2019-01-25T04:46:03.199Z,96520.72
2019-01-25T04:47:39.009Z,96525.01
2019-01-25T04:49:14.416Z,96526.34
2019-01-25T04:50:49.984Z,96523.12
2019-01-25T04:52:25.394Z,96524.37
2019-01-25T04:54:00.914Z,96529.42
2019-01-25T04:55:36.712Z,96536.52
2019-01-25T04:57:12.245Z,96536.09
2019-01-25T04:58:48.139Z,96539.31
2019-01-25T05:00:24.148Z,96531.19
2019-01-25T05:01:59.725Z,96524.95
2019-01-25T05:03:36.454Z,96527.53
2019-01-25T05:05:11.949Z,96532.08
2019-01-25T05:06:50.833Z,96528.59
2019-01-25T05:08:31.526Z,96524.59
2019-01-25T05:10:07.129Z,96527.67
2019-01-25T05:11:42.965Z,96528.80
2019-01-25T05:13:18.841Z,96529.15
2019-01-25T05:14:54.625Z,96533.22
2019-01-25T05:16:29.953Z,96533.78
2019-01-25T05:18:07.841Z,96535.73
2019-01-25T05:19:43.697Z,96542.91
2019-01-25T05:21:26.118Z,96532.86
2019-01-25T05:23:02.089Z,96528.72
2019-01-25T05:24:37.419Z,96533.57
2019-01-25T05:26:12.755Z,96530.48
2019-01-25T05:27:49.230Z,96527.94
2019-01-25T05:29:27.395Z,96526.25
2019-01-25T05:31:09.746Z,96530.47
2019-01-25T05:32:46.015Z,96539.54
2019-01-25T05:34:28.528Z,96540.59
2019-01-25T05:36:04.406Z,96547.89
2019-01-25T05:37:40.759Z,96537.44
2019-01-25T05:39:16.194Z,96547.16
2019-01-25T05:40:52.157Z,96547.53
2019-01-25T05:42:31.501Z,96554.47
2019-01-25T05:44:06.904Z,96552.65
2019-01-25T05:45:45.507Z,96554.88
2019-01-25T05:47:25.199Z,96560.08
2019-01-25T05:49:00.802Z,96560.56
2019-01-25T05:50:36.650Z,96559.59
2019-01-25T05:52:18.489Z,96567.65
2019-01-25T05:53:54.469Z,96562.05
2019-01-25T05:55:30.413Z,96566.25
2019-01-25T05:57:06.247Z,96566.68
2019-01-25T05:58:44.468Z,96569.74
2019-01-25T06:00:30.557Z,96570.32
2019-01-25T06:02:05.941Z,96566.20
2019-01-25T06:03:41.718Z,96568.50
2019-01-25T06:05:20.295Z,96568.78
2019-01-25T06:06:56.306Z,96564.78
2019-01-25T06:08:43.538Z,96569.47
2019-01-25T06:10:14.994Z,96567.01
2019-01-25T06:11:50.406Z,96572.77
2019-01-25T06:13:25.807Z,96568.91
2019-01-25T06:15:04.148Z,96575.23
2019-01-25T06:16:44.159Z,96579.08
2019-01-25T06:18:21.450Z,96577.70
2019-01-25T06:19:57.042Z,96579.03
2019-01-25T06:21:32.825Z,96576.37
2019-01-25T06:23:16.143Z,96576.02
2019-01-25T06:24:53.781Z,96576.00
2019-01-25T06:26:30.297Z,96581.63
2019-01-25T06:28:18.045Z,96580.92
2019-01-25T06:29:53.696Z,96582.73
2019-01-25T06:31:29.801Z,96584.80
2019-01-25T06:33:05.741Z,96584.58
2019-01-25T06:34:42.512Z,96584.30
2019-01-25T06:36:18.429Z,96585.41
2019-01-25T06:37:54.087Z,96586.69
2019-01-25T06:39:29.441Z,96587.03
2019-01-25T06:41:06.006Z,96590.05
2019-01-25T06:42:45.031Z,96583.93
2019-01-25T06:44:24.312Z,96587.09
2019-01-25T06:45:59.667Z,96586.33
2019-01-25T06:47:35.422Z,96580.92
2019-01-25T06:49:11.612Z,96579.66
2019-01-25T06:50:47.660Z,96581.98
2019-01-25T06:52:24.204Z,96580.78
2019-01-25T06:54:00.200Z,96580.86
2019-01-25T06:55:49.854Z,96586.20
2019-01-25T06:57:40.158Z,96579.79
2019-01-25T06:59:18.905Z,96580.17
2019-01-25T07:01:20.217Z,96580.86
2019-01-25T07:02:58.441Z,96581.98
2019-01-25T07:04:35.825Z,96575.44
2019-01-25T07:06:18.206Z,96569.89
2019-01-25T07:08:02.581Z,96573.76
2019-01-25T07:09:45.304Z,96574.11
2019-01-25T07:11:22.500Z,96583.87
2019-01-25T07:12:59.995Z,96586.27
2019-01-25T07:14:35.952Z,96584.14
2019-01-25T07:16:15.152Z,96582.88
2019-01-25T07:17:50.874Z,96593.88
2019-01-25T07:19:35.416Z,96597.13
2019-01-25T07:21:11.182Z,96597.05
2019-01-25T07:22:46.896Z,96602.47
2019-01-25T07:24:22.211Z,96599.10
2019-01-25T07:25:58.282Z,96595.31
2019-01-25T07:27:36.978Z,96595.56
2019-01-25T07:29:12.811Z,96600.98
2019-01-25T07:30:48.345Z,96597.53
2019-01-25T07:32:24.273Z,96602.95
2019-01-25T07:33:59.803Z,96603.44
2019-01-25T07:35:35.208Z,96600.13
2019-01-25T07:37:10.761Z,96594.80
2019-01-25T07:38:46.360Z,96600.42
2019-01-25T07:40:21.796Z,96603.44
2019-01-25T07:42:00.257Z,96604.33
2019-01-25T07:43:37.392Z,96604.33
2019-01-25T07:45:14.688Z,96602.36
2019-01-25T07:46:50.350Z,96608.69
2019-01-25T07:48:28.912Z,96609.50
2019-01-25T07:50:04.881Z,96607.25
2019-01-25T07:51:43.458Z,96606.91
2019-01-25T07:53:18.829Z,96615.97
2019-01-25T07:54:54.992Z,96608.69
2019-01-25T07:56:32.452Z,96609.88
2019-01-25T07:58:07.935Z,96608.38
2019-01-25T07:59:50.072Z,96604.16
2019-01-25T08:01:25.316Z,96598.33
2019-01-25T08:03:01.614Z,96603.45
2019-01-25T08:04:41.750Z,96595.80
2019-01-25T08:06:17.882Z,96592.78
2019-01-25T08:07:53.421Z,96588.84
2019-01-25T08:09:28.882Z,96580.48
2019-01-25T08:11:10.985Z,96573.42
2019-01-25T08:12:48.270Z,96575.88
2019-01-25T08:14:23.676Z,96567.73
2019-01-25T08:15:59.460Z,96575.53
2019-01-25T08:17:35.489Z,96569.42
2019-01-25T08:19:13.987Z,96577.11
2019-01-25T08:20:49.513Z,96578.94
2019-01-25T08:22:25.218Z,96578.79
2019-01-25T08:24:01.083Z,96578.30
2019-01-25T08:25:39.342Z,96580.48
2019-01-25T08:27:15.237Z,96583.08
2019-01-25T08:28:51.473Z,96586.31
2019-01-25T08:30:29.786Z,96568.71
2019-01-25T08:32:07.875Z,96565.23
2019-01-25T08:33:43.721Z,96564.03
2019-01-25T08:35:22.546Z,96567.90
2019-01-25T08:37:01.680Z,96564.34
2019-01-25T08:38:37.630Z,96561.80
2019-01-25T08:40:16.671Z,96564.33
2019-01-25T08:41:52.351Z,96571.86
2019-01-25T08:43:35.148Z,96568.75
2019-01-25T08:45:15.509Z,96571.94
2019-01-25T08:46:51.279Z,96557.86
2019-01-25T08:48:29.738Z,96553.89
2019-01-25T08:50:11.898Z,96551.95
2019-01-25T08:51:49.229Z,96545.88
2019-01-25T08:53:25.945Z,96549.67
2019-01-25T08:55:04.370Z,96544.44
2019-01-25T08:56:48.257Z,96547.05
2019-01-25T08:58:23.795Z,96542.39
2019-01-25T09:00:03.980Z,96539.02
2019-01-25T09:01:39.681Z,96541.34
2019-01-25T09:03:15.603Z,96541.08
2019-01-25T09:04:53.193Z,96539.02
2019-01-25T09:06:31.650Z,96537.89
2019-01-25T09:08:09.225Z,96535.50
2019-01-25T09:09:45.517Z,96540.00
2019-01-25T09:11:28.113Z,96544.86
2019-01-25T09:13:03.627Z,96537.16
2019-01-25T09:14:46.101Z,96546.25
2019-01-25T09:16:22.238Z,96546.38
2019-01-25T09:18:21.930Z,96548.83
2019-01-25T09:20:00.298Z,96550.88
2019-01-25T09:21:39.493Z,96548.26
2019-01-25T09:23:15.009Z,96548.42
2019-01-25T09:24:57.447Z,96550.84
2019-01-25T09:26:37.238Z,96548.58
2019-01-25T09:28:14.701Z,96550.56
2019-01-25T09:29:51.239Z,96547.39
2019-01-25T09:31:26.668Z,96552.60
2019-01-25T09:33:03.129Z,96552.19
2019-01-25T09:34:38.819Z,96548.03
2019-01-25T09:36:14.319Z,96549.16
2019-01-25T09:37:49.933Z,96555.37
2019-01-25T09:39:26.538Z,96554.05
2019-01-25T09:41:02.396Z,96561.31
2019-01-25T09:42:42.827Z,96563.92
2019-01-25T09:44:23.485Z,96573.40
2019-01-25T09:45:59.170Z,96573.16
2019-01-25T09:47:36.156Z,96571.59
2019-01-25T09:49:14.915Z,96572.95
2019-01-25T09:50:52.959Z,96568.41
2019-01-25T09:52:28.109Z,96574.64
2019-01-25T09:54:03.481Z,96577.45
2019-01-25T09:55:39.293Z,96580.30
2019-01-25T09:57:16.727Z,96583.59
2019-01-25T09:58:58.672Z,96583.88
2019-01-25T10:00:40.771Z,96589.81
2019-01-25T10:02:19.399Z,96593.22
2019-01-25T10:04:00.641Z,96597.78
2019-01-25T10:05:36.471Z,96601.50
2019-01-25T10:07:19.421Z,96592.78
2019-01-25T10:08:54.929Z,96598.88
2019-01-25T10:10:33.573Z,96589.94
2019-01-25T10:12:13.934Z,96596.23
2019-01-25T10:13:50.392Z,96589.45
2019-01-25T10:15:35.478Z,96603.05
2019-01-25T10:17:15.993Z,96593.72
2019-01-25T10:18:54.614Z,96589.66
2019-01-25T10:20:30.996Z,96592.61
2019-01-25T10:22:10.293Z,96600.34
2019-01-25T10:24:05.503Z,96596.93
2019-01-25T10:25:42.950Z,96597.24
2019-01-25T10:27:20.325Z,96597.45
2019-01-25T10:29:06.055Z,96597.86
2019-01-25T10:30:44.453Z,96586.03
2019-01-25T10:32:24.348Z,96585.75
2019-01-25T10:34:01.593Z,96578.00
2019-01-25T10:35:40.237Z,96581.45
2019-01-25T10:37:15.763Z,96581.93
2019-01-25T10:38:57.306Z,96579.72
2019-01-25T10:40:34.467Z,96573.85
2019-01-25T10:42:10.249Z,96566.38
2019-01-25T10:43:50.531Z,96571.44
2019-01-25T10:45:33.524Z,96570.91
2019-01-25T10:47:14.083Z,96564.66
2019-01-25T10:48:55.111Z,96558.23
2019-01-25T10:50:37.103Z,96557.66
2019-01-25T10:52:14.282Z,96549.97
2019-01-25T10:53:53.886Z,96555.08
2019-01-25T10:55:55.512Z,96554.36
2019-01-25T10:57:32.677Z,96557.05
2019-01-25T10:59:15.228Z,96556.58
2019-01-25T11:00:51.436Z,96559.21
2019-01-25T11:02:31.308Z,96563.46
2019-01-25T11:04:16.430Z,96566.91
2019-01-25T11:06:00.833Z,96566.56
2019-01-25T11:07:42.128Z,96569.40
2019-01-25T11:09:17.841Z,96565.69
2019-01-25T11:10:57.142Z,96566.89
2019-01-25T11:12:32.961Z,96569.64
2019-01-25T11:14:12.099Z,96576.80
2019-01-25T11:15:52.413Z,96581.09
2019-01-25T11:17:36.347Z,96577.02
2019-01-25T11:19:10.353Z,96578.59
2019-01-25T11:20:46.715Z,96581.39
2019-01-25T11:22:27.986Z,96577.56
2019-01-25T11:24:07.790Z,96580.62
2019-01-25T11:25:48.928Z,96586.66
2019-01-25T11:27:29.364Z,96580.76
2019-01-25T11:29:05.424Z,96585.42
2019-01-25T11:30:41.412Z,96583.71
2019-01-25T11:32:18.726Z,96590.41
2019-01-25T11:33:58.174Z,96579.37
2019-01-25T11:35:35.176Z,96576.37
2019-01-25T11:37:11.171Z,96573.55
2019-01-25T11:38:52.903Z,96576.97
2019-01-25T11:40:38.176Z,96577.24
2019-01-25T11:42:18.102Z,96577.78
2019-01-25T11:43:58.995Z,96574.52
2019-01-25T11:45:35.309Z,96570.50
2019-01-25T11:47:17.817Z,96561.75
2019-01-25T11:49:00.054Z,96563.06
2019-01-25T11:50:35.512Z,96567.45
2019-01-25T11:52:15.847Z,96563.43
2019-01-25T11:53:56.914Z,96572.58
2019-01-25T11:55:32.380Z,96574.09
2019-01-25T11:57:10.142Z,96576.56
2019-01-25T11:58:46.700Z,96568.22
2019-01-25T12:00:25.224Z,96572.30
2019-01-25T12:02:09.702Z,96580.32
2019-01-25T12:03:59.693Z,96582.27
2019-01-25T12:05:47.652Z,96577.16
2019-01-25T12:08:01.258Z,96584.07
2019-01-25T12:11:45.184Z,96580.76
2019-01-25T12:13:31.213Z,96579.44
2019-01-25T12:15:15.086Z,96577.57
2019-01-25T12:16:50.878Z,96572.88
2019-01-25T12:18:41.003Z,96582.09
2019-01-25T12:20:35.248Z,96584.75
2019-01-25T12:22:28.885Z,96582.81
2019-01-25T12:24:14.544Z,96586.23
2019-01-25T12:26:35.375Z,96586.95
2019-01-25T12:28:21.662Z,96581.19
2019-01-25T12:30:05.831Z,96591.01
2019-01-25T12:31:47.618Z,96590.78
2019-01-25T12:33:25.415Z,96598.69
2019-01-25T12:35:07.598Z,96597.42
2019-01-25T12:36:43.387Z,96599.70
2019-01-25T12:38:27.618Z,96601.24
2019-01-25T12:40:15.321Z,96601.61
2019-01-25T12:41:49.511Z,96610.86
2019-01-25T12:43:27.436Z,96617.83
2019-01-25T12:45:04.749Z,96620.95
2019-01-25T12:46:41.084Z,96615.16
2019-01-25T12:48:23.387Z,96616.59
2019-01-25T12:50:00.330Z,96614.55
2019-01-25T12:52:08.337Z,96612.17
2019-01-25T12:53:45.223Z,96608.92
2019-01-25T12:55:32.577Z,96597.28
2019-01-25T12:57:07.414Z,96593.72
2019-01-25T12:58:43.929Z,96594.80
2019-01-25T13:00:20.990Z,96589.47
2019-01-25T13:01:57.045Z,96584.55
2019-01-25T13:03:34.613Z,96582.16
2019-01-25T13:05:12.292Z,96581.16
2019-01-25T13:06:47.819Z,96573.02
2019-01-25T13:08:23.578Z,96580.88
2019-01-25T13:09:59.712Z,96584.50
2019-01-25T13:11:35.682Z,96583.73
2019-01-25T13:13:11.500Z,96587.99
2019-01-25T13:14:48.583Z,96587.26
2019-01-25T13:16:26.584Z,96582.21
2019-01-25T13:18:08.954Z,96582.98
2019-01-25T13:19:44.750Z,96579.92
2019-01-25T13:21:32.953Z,96583.58
2019-01-25T13:23:08.471Z,96582.08
2019-01-25T13:24:51.553Z,96586.31
2019-01-25T13:26:38.961Z,96576.33
2019-01-25T13:28:17.793Z,96560.19
2019-01-25T13:30:12.277Z,96552.59
2019-01-25T13:31:50.751Z,96549.15
2019-01-25T13:33:47.608Z,96542.31
2019-01-25T13:35:33.690Z,96538.30
2019-01-25T13:37:15.141Z,96538.47
2019-01-25T13:39:02.559Z,96541.25
2019-01-25T13:40:45.478Z,96545.13
2019-01-25T13:42:24.306Z,96556.83
2019-01-25T13:44:00.903Z,96551.44
2019-01-25T13:45:38.092Z,96547.83
2019-01-25T13:47:20.223Z,96542.81
2019-01-25T13:49:02.666Z,96544.20
2019-01-25T13:50:45.412Z,96548.45
2019-01-25T13:52:21.271Z,96542.11
2019-01-25T13:54:03.516Z,96538.05
2019-01-25T13:55:42.683Z,96536.14
2019-01-25T13:57:21.397Z,96529.62
2019-01-25T13:59:01.449Z,96522.70
2019-01-25T14:00:39.988Z,96514.45
2019-01-25T14:02:23.402Z,96516.94
2019-01-25T14:04:05.220Z,96515.78
2019-01-25T14:05:44.399Z,96511.19
2019-01-25T14:07:23.236Z,96507.73
2019-01-25T14:09:03.117Z,96508.30
2019-01-25T14:10:44.775Z,96499.66
2019-01-25T14:12:26.346Z,96491.39
2019-01-25T14:14:05.748Z,96486.22
2019-01-25T14:15:45.655Z,96478.17
2019-01-25T14:17:30.042Z,96483.92
2019-01-25T14:19:12.659Z,96487.36
2019-01-25T14:20:51.833Z,96487.55
2019-01-25T14:22:30.578Z,96490.22
2019-01-25T14:24:16.863Z,96498.48
2019-01-25T14:25:54.831Z,96491.55
2019-01-25T14:27:33.931Z,96498.86
2019-01-25T14:29:09.639Z,96508.80
2019-01-25T14:30:53.605Z,96505.56
2019-01-25T14:32:34.464Z,96501.11
2019-01-25T14:34:18.448Z,96500.48
2019-01-25T14:35:58.036Z,96501.30
2019-01-25T14:37:34.078Z,96502.27
2019-01-25T14:39:19.013Z,96506.27
2019-01-25T14:41:15.581Z,96504.55
2019-01-25T14:43:08.574Z,96497.42
2019-01-25T14:44:47.162Z,96501.20
2019-01-25T14:46:24.300Z,96494.73
2019-01-25T14:48:00.959Z,96488.61
2019-01-25T14:49:52.987Z,96500.90
2019-01-25T14:51:33.695Z,96491.28
2019-01-25T14:53:38.234Z,96488.63
2019-01-25T14:55:10.959Z,96487.71
2019-01-25T14:56:46.678Z,96487.32
2019-01-25T14:58:35.158Z,96487.67
2019-01-25T15:00:11.643Z,96490.52
2019-01-25T15:01:54.174Z,96491.70
2019-01-25T15:03:30.171Z,96489.97
2019-01-25T15:05:14.740Z,96496.50
2019-01-25T15:06:56.281Z,96494.58
2019-01-25T15:08:34.605Z,96502.09
2019-01-25T15:10:17.181Z,96506.28
2019-01-25T15:12:01.275Z,96500.74
2019-01-25T15:13:47.972Z,96498.59
2019-01-25T15:15:38.637Z,96507.06
2019-01-25T15:17:20.366Z,96507.42
2019-01-25T15:18:58.571Z,96503.80
2019-01-25T15:20:43.137Z,96504.36
2019-01-25T15:22:19.205Z,96501.30
2019-01-25T15:24:00.846Z,96498.57
2019-01-25T15:25:37.434Z,96493.00
2019-01-25T15:27:16.537Z,96493.77
2019-01-25T15:28:53.231Z,96495.08
2019-01-25T15:30:30.448Z,96496.41
2019-01-25T15:32:14.058Z,96495.47
2019-01-25T15:33:49.834Z,96496.38
2019-01-25T15:35:27.344Z,96497.89
2019-01-25T15:37:02.811Z,96500.20
2019-01-25T15:38:38.538Z,96488.30
2019-01-25T15:40:16.593Z,96496.11
2019-01-25T15:41:54.374Z,96507.42
2019-01-25T15:43:32.847Z,96506.67
2019-01-25T15:45:21.163Z,96507.64
2019-01-25T15:46:59.396Z,96509.16
2019-01-25T15:48:35.153Z,96503.23
2019-01-25T15:50:21.852Z,96511.27
2019-01-25T15:51:59.322Z,96506.08
2019-01-25T15:53:37.991Z,96503.37
2019-01-25T15:55:14.538Z,96498.38
2019-01-25T15:56:59.841Z,96493.02
2019-01-25T15:58:50.286Z,96494.35
2019-01-25T16:00:28.230Z,96496.46
2019-01-25T16:02:07.432Z,96498.20
2019-01-25T16:03:44.106Z,96505.85
2019-01-25T16:05:25.887Z,96503.14
2019-01-25T16:07:07.645Z,96497.61
2019-01-25T16:08:44.643Z,96495.09
2019-01-25T16:10:26.119Z,96499.69
2019-01-25T16:12:12.470Z,96499.12
2019-01-25T16:13:51.574Z,96495.67
2019-01-25T16:15:34.247Z,96484.77
2019-01-25T16:17:15.255Z,96485.36
2019-01-25T16:18:55.912Z,96481.11
2019-01-25T16:20:41.191Z,96480.75
2019-01-25T16:22:19.565Z,96479.20
2019-01-25T16:23:59.144Z,96474.98
2019-01-25T16:25:36.481Z,96480.75
2019-01-25T16:27:12.720Z,96479.20
2019-01-25T16:28:53.706Z,96477.09
2019-01-25T16:30:40.067Z,96473.05
2019-01-25T16:32:17.961Z,96476.32
2019-01-25T16:33:54.154Z,96467.14
2019-01-25T16:35:29.818Z,96466.77
2019-01-25T16:37:07.926Z,96462.74
2019-01-25T16:38:46.244Z,96460.62
2019-01-25T16:40:28.038Z,96458.52
2019-01-25T16:42:07.679Z,96454.09
2019-01-25T16:43:43.575Z,96457.74
2019-01-25T16:45:24.845Z,96455.86
2019-01-25T16:47:04.060Z,96456.80
2019-01-25T16:48:40.129Z,96448.93
2019-01-25T16:50:23.652Z,96452.41
2019-01-25T16:51:58.774Z,96447.02
2019-01-25T16:53:42.233Z,96445.48
2019-01-25T16:55:26.396Z,96447.81
2019-01-25T16:57:05.562Z,96442.42
2019-01-25T16:58:48.801Z,96443.02
2019-01-25T17:00:32.246Z,96440.55
2019-01-25T17:02:16.835Z,96443.03
2019-01-25T17:04:03.339Z,96440.91
2019-01-25T17:05:42.301Z,96435.72
2019-01-25T17:07:18.830Z,96420.56
2019-01-25T17:08:58.954Z,96420.77
2019-01-25T17:10:49.190Z,96422.30
2019-01-25T17:12:18.053Z,96415.03
2019-01-25T17:14:02.853Z,96402.76
2019-01-25T17:15:42.238Z,96399.15
2019-01-25T17:17:20.558Z,96396.43
2019-01-25T17:19:02.322Z,96400.65
2019-01-25T17:20:48.278Z,96397.02
2019-01-25T17:22:23.941Z,96396.25
2019-01-25T17:24:07.313Z,96389.16
2019-01-25T17:25:43.416Z,96394.16
2019-01-25T17:27:27.067Z,96395.30
2019-01-25T17:29:12.720Z,96389.72
2019-01-25T17:30:56.429Z,96384.96
2019-01-25T17:32:36.554Z,96390.91
2019-01-25T17:34:18.061Z,96390.52
2019-01-25T17:35:55.415Z,96387.08
2019-01-25T17:37:34.144Z,96380.97
2019-01-25T17:39:22.518Z,96384.00
2019-01-25T17:41:06.179Z,96386.69
2019-01-25T17:42:42.218Z,96386.31
2019-01-25T17:44:18.336Z,96382.68
2019-01-25T17:45:54.121Z,96380.57
2019-01-25T17:47:36.960Z,96392.66
2019-01-25T17:49:12.904Z,96387.87
2019-01-25T17:50:54.151Z,96385.19
2019-01-25T17:52:39.206Z,96381.93
2019-01-25T17:54:24.372Z,96381.72
2019-01-25T17:56:26.257Z,96383.63
2019-01-25T17:58:08.176Z,96375.58
2019-01-25T17:59:43.053Z,96378.28
2019-01-25T18:01:24.162Z,96371.75
2019-01-25T18:03:03.717Z,96376.37
2019-01-25T18:04:47.704Z,96373.48
2019-01-25T18:06:27.694Z,96366.77
2019-01-25T18:08:06.129Z,96375.80
2019-01-25T18:09:43.585Z,96368.13
2019-01-25T18:11:19.402Z,96366.23
2019-01-25T18:12:55.192Z,96366.23
2019-01-25T18:14:36.930Z,96367.57
2019-01-25T18:16:13.011Z,96368.72
2019-01-25T18:17:50.032Z,96368.89
2019-01-25T18:19:28.524Z,96367.75
2019-01-25T18:21:06.965Z,96360.83
2019-01-25T18:22:46.598Z,96364.67
2019-01-25T18:24:24.372Z,96364.30
2019-01-25T18:26:37.392Z,96356.23
2019-01-25T18:28:17.047Z,96358.94
2019-01-25T18:30:04.179Z,96364.10
2019-01-25T18:31:40.213Z,96357.59
2019-01-25T18:33:24.312Z,96363.92
2019-01-25T18:35:03.255Z,96357.59
2019-01-25T18:36:38.780Z,96355.28
2019-01-25T18:38:16.705Z,96351.85
2019-01-25T18:39:57.688Z,96352.63
2019-01-25T18:41:35.391Z,96356.28
2019-01-25T18:44:18.860Z,96350.72
2019-01-25T18:46:01.053Z,96353.96
2019-01-25T18:47:37.037Z,96344.02
2019-01-25T18:49:14.786Z,96341.33
2019-01-25T18:50:53.335Z,96328.84
2019-01-25T18:52:34.818Z,96338.65
2019-01-25T18:54:11.999Z,96316.41
2019-01-25T18:55:47.409Z,96317.38
2019-01-25T18:57:25.151Z,96318.13
2019-01-25T18:59:05.838Z,96324.64
2019-01-25T19:00:45.769Z,96323.30
2019-01-25T19:02:25.507Z,96320.27
2019-01-25T19:04:43.692Z,96320.06
2019-01-25T19:06:26.161Z,96312.20
2019-01-25T19:08:08.554Z,96304.92
2019-01-25T19:09:47.270Z,96297.25
2019-01-25T19:11:22.995Z,96292.64
2019-01-25T19:13:02.190Z,96280.38
2019-01-25T19:14:39.213Z,96276.16
2019-01-25T19:16:28.502Z,96279.04
2019-01-25T19:18:36.260Z,96278.45
2019-01-25T19:20:02.223Z,96270.98
2019-01-25T19:21:40.161Z,96271.17
2019-01-25T19:23:16.281Z,96263.31
2019-01-25T19:25:04.101Z,96265.99
2019-01-25T19:26:42.525Z,96269.27